createdAt,value
2022-08-26T00:01:46.657Z,21.20
2022-08-26T00:04:13.540Z,21.10
2022-08-26T00:06:42.520Z,21.00
2022-08-26T00:09:13.652Z,20.90
2022-08-26T00:11:46.633Z,20.80
2022-08-26T00:14:14.276Z,20.80
2022-08-26T00:16:48.172Z,20.80
2022-08-26T00:19:20.372Z,20.70
2022-08-26T00:21:49.631Z,20.70
2022-08-26T00:24:18.222Z,20.70
2022-08-26T00:26:44.895Z,20.70
2022-08-26T00:29:12.243Z,20.70
2022-08-26T00:31:39.320Z,20.70
2022-08-26T00:34:06.893Z,20.80
2022-08-26T00:36:36.485Z,20.80
2022-08-26T00:39:04.282Z,20.80
2022-08-26T00:41:30.994Z,20.80
2022-08-26T00:43:57.698Z,20.80
2022-08-26T00:46:31.327Z,20.80
2022-08-26T00:49:19.173Z,20.80
2022-08-26T00:51:56.226Z,20.80
2022-08-26T00:54:27.230Z,20.80
2022-08-26T00:57:02.404Z,20.80
2022-08-26T00:59:32.843Z,20.70
2022-08-26T01:02:02.523Z,20.50
2022-08-26T01:04:34.855Z,20.30
2022-08-26T01:07:01.924Z,20.20
2022-08-26T01:09:29.601Z,20.10
2022-08-26T01:11:58.827Z,20.10
2022-08-26T01:14:29.907Z,20.20
2022-08-26T01:16:56.595Z,20.20
2022-08-26T01:19:31.094Z,20.10
2022-08-26T01:22:03.080Z,20.00
2022-08-26T01:24:36.706Z,19.90
2022-08-26T01:27:08.049Z,19.90
2022-08-26T01:29:38.016Z,19.60
2022-08-26T01:32:07.490Z,19.50
2022-08-26T01:34:36.685Z,19.30
2022-08-26T01:37:15.836Z,19.20
2022-08-26T01:39:46.365Z,19.20
2022-08-26T01:42:14.983Z,19.20
2022-08-26T01:44:51.439Z,19.20
2022-08-26T01:47:21.443Z,19.30
2022-08-26T01:49:51.549Z,19.30
2022-08-26T01:52:24.560Z,19.30
2022-08-26T01:54:57.327Z,19.30
2022-08-26T01:57:25.262Z,19.40
2022-08-26T01:59:55.352Z,19.30
2022-08-26T02:02:23.106Z,19.30
2022-08-26T02:04:57.207Z,19.20
2022-08-26T02:07:24.946Z,19.30
2022-08-26T02:09:54.780Z,19.30
2022-08-26T02:12:21.930Z,19.30
2022-08-26T02:14:53.635Z,19.30
2022-08-26T02:17:24.574Z,19.30
2022-08-26T02:19:51.376Z,19.30
2022-08-26T02:22:20.953Z,19.30
2022-08-26T02:24:55.791Z,19.40
2022-08-26T02:27:26.147Z,19.40
2022-08-26T02:30:09.496Z,19.50
2022-08-26T02:32:37.220Z,19.50
2022-08-26T02:35:08.920Z,19.50
2022-08-26T02:37:36.072Z,19.50
2022-08-26T02:40:04.003Z,19.50
2022-08-26T02:42:31.033Z,19.50
2022-08-26T02:44:57.725Z,19.50
2022-08-26T02:47:25.506Z,19.20
2022-08-26T02:49:55.807Z,18.90
2022-08-26T02:52:22.538Z,18.60
2022-08-26T02:54:49.592Z,18.50
2022-08-26T02:57:16.807Z,18.50
2022-08-26T02:59:44.062Z,18.40
2022-08-26T03:02:11.390Z,18.50
2022-08-26T03:04:39.727Z,18.40
2022-08-26T03:07:07.099Z,18.40
2022-08-26T03:09:33.966Z,18.40
2022-08-26T03:12:01.459Z,18.50
2022-08-26T03:14:29.781Z,18.50
2022-08-26T03:16:56.702Z,18.50
2022-08-26T03:19:24.974Z,18.50
2022-08-26T03:21:53.419Z,18.50
2022-08-26T03:24:25.673Z,18.50
2022-08-26T03:26:53.037Z,18.50
2022-08-26T03:29:39.314Z,18.50
2022-08-26T03:32:06.191Z,18.40
2022-08-26T03:34:33.403Z,18.30
2022-08-26T03:37:00.526Z,18.30
2022-08-26T03:39:27.866Z,18.20
2022-08-26T03:41:58.834Z,18.20
2022-08-26T03:44:26.447Z,18.20
2022-08-26T03:46:54.511Z,18.30
2022-08-26T03:49:22.231Z,18.30
2022-08-26T03:51:48.951Z,18.30
2022-08-26T03:54:17.474Z,18.30
2022-08-26T03:56:44.128Z,18.30
2022-08-26T03:59:13.379Z,18.40
2022-08-26T04:01:40.356Z,18.40
2022-08-26T04:04:07.086Z,18.40
2022-08-26T04:06:40.119Z,18.40
2022-08-26T04:09:10.290Z,18.30
2022-08-26T04:11:39.511Z,18.30
2022-08-26T04:14:10.087Z,18.40
2022-08-26T04:16:36.928Z,18.40
2022-08-26T04:19:03.697Z,18.40
2022-08-26T04:21:30.523Z,18.40
2022-08-26T04:23:58.307Z,18.30
2022-08-26T04:26:25.809Z,18.30
2022-08-26T04:28:54.439Z,18.30
2022-08-26T04:31:21.750Z,18.30
2022-08-26T04:33:49.976Z,18.30
2022-08-26T04:36:17.824Z,18.30
2022-08-26T04:38:47.702Z,18.40
2022-08-26T04:41:15.693Z,18.50
2022-08-26T04:43:44.696Z,18.50
2022-08-26T04:46:13.702Z,18.50
2022-08-26T04:48:41.299Z,18.60
2022-08-26T04:51:09.397Z,18.60
2022-08-26T04:53:36.743Z,18.70
2022-08-26T04:56:04.765Z,18.70
2022-08-26T04:58:32.043Z,18.70
2022-08-26T05:00:58.704Z,18.60
2022-08-26T05:03:27.320Z,18.60
2022-08-26T05:05:57.891Z,18.70
2022-08-26T05:08:24.563Z,18.70
2022-08-26T05:10:55.869Z,18.70
2022-08-26T05:13:26.488Z,18.80
2022-08-26T05:15:53.554Z,18.90
2022-08-26T05:18:23.050Z,19.10
2022-08-26T05:20:54.691Z,19.50
2022-08-26T05:23:23.657Z,20.00
2022-08-26T05:25:58.347Z,20.50
2022-08-26T05:28:28.632Z,21.00
2022-08-26T05:30:56.341Z,21.60
2022-08-26T05:33:23.845Z,22.20
2022-08-26T05:35:50.656Z,22.70
2022-08-26T05:38:21.610Z,23.10
2022-08-26T05:40:52.916Z,23.50
2022-08-26T05:43:20.426Z,23.80
2022-08-26T05:45:49.899Z,24.00
2022-08-26T05:48:22.873Z,24.20
2022-08-26T05:50:54.323Z,24.40
2022-08-26T05:53:22.211Z,24.70
2022-08-26T05:55:52.889Z,25.20
2022-08-26T05:58:24.429Z,25.40
2022-08-26T06:01:04.310Z,25.60
2022-08-26T06:03:33.879Z,25.90
2022-08-26T06:06:09.797Z,26.00
2022-08-26T06:08:38.107Z,26.00
2022-08-26T06:11:18.254Z,26.00
2022-08-26T06:13:46.263Z,26.00
2022-08-26T06:16:18.053Z,26.00
2022-08-26T06:18:46.491Z,25.90
2022-08-26T06:21:16.038Z,26.00
2022-08-26T06:24:02.353Z,26.10
2022-08-26T06:26:29.693Z,26.30
2022-08-26T06:28:56.921Z,26.50
2022-08-26T06:31:25.168Z,26.60
2022-08-26T06:33:52.782Z,26.70
2022-08-26T06:36:22.778Z,26.70
2022-08-26T06:38:52.116Z,26.60
2022-08-26T06:41:23.714Z,26.60
2022-08-26T06:43:52.424Z,27.20
2022-08-26T06:46:21.521Z,27.50
2022-08-26T06:48:48.774Z,27.50
2022-08-26T06:51:18.010Z,27.60
2022-08-26T06:53:47.181Z,27.80
2022-08-26T06:56:20.064Z,27.80
2022-08-26T06:58:46.954Z,27.90
2022-08-26T07:01:28.833Z,27.90
2022-08-26T07:03:58.548Z,27.80
2022-08-26T07:06:27.326Z,28.10
2022-08-26T07:09:01.393Z,28.20
2022-08-26T07:11:31.210Z,28.40
2022-08-26T07:13:58.950Z,28.50
2022-08-26T07:16:29.831Z,28.70
2022-08-26T07:18:57.320Z,28.50
2022-08-26T07:21:24.957Z,28.60
2022-08-26T07:23:57.505Z,28.80
2022-08-26T07:26:28.822Z,29.10
2022-08-26T07:28:57.391Z,29.50
2022-08-26T07:31:29.493Z,29.90
2022-08-26T07:33:57.537Z,30.20
2022-08-26T07:36:25.385Z,30.10
2022-08-26T07:38:52.895Z,30.10
2022-08-26T07:41:22.968Z,30.20
2022-08-26T07:43:50.980Z,30.80
2022-08-26T07:46:27.453Z,31.30
2022-08-26T07:48:58.032Z,30.70
2022-08-26T07:51:25.425Z,30.70
2022-08-26T07:53:53.188Z,31.50
2022-08-26T07:56:23.045Z,32.10
2022-08-26T07:58:51.794Z,32.20
2022-08-26T08:01:20.986Z,31.80
2022-08-26T08:03:51.306Z,31.50
2022-08-26T08:06:23.080Z,31.30
2022-08-26T08:08:54.353Z,30.40
2022-08-26T08:11:21.999Z,30.40
2022-08-26T08:13:49.950Z,30.50
2022-08-26T08:16:24.541Z,30.60
2022-08-26T08:18:51.325Z,30.80
2022-08-26T08:21:21.235Z,31.60
2022-08-26T08:23:48.840Z,32.00
2022-08-26T08:26:15.686Z,32.30
2022-08-26T08:28:43.673Z,32.70
2022-08-26T08:31:38.995Z,33.20
2022-08-26T08:34:09.119Z,33.70
2022-08-26T08:36:36.082Z,34.20
2022-08-26T08:39:03.606Z,34.30
2022-08-26T08:41:52.470Z,34.90
2022-08-26T08:46:55.966Z,36.10
2022-08-26T08:49:25.942Z,35.80
2022-08-26T08:51:59.117Z,34.80
2022-08-26T08:54:30.002Z,34.70
2022-08-26T08:57:07.260Z,35.20
2022-08-26T08:59:38.440Z,35.10
2022-08-26T09:02:22.759Z,35.00
2022-08-26T09:04:58.138Z,34.20
2022-08-26T09:07:37.709Z,34.10
2022-08-26T09:10:20.925Z,34.80
2022-08-26T09:12:48.013Z,35.00
2022-08-26T09:15:31.326Z,34.50
2022-08-26T09:18:22.545Z,34.20
2022-08-26T09:20:56.622Z,34.00
2022-08-26T09:23:23.450Z,33.80
2022-08-26T09:25:55.673Z,33.40
2022-08-26T09:28:25.056Z,33.20
2022-08-26T09:31:19.335Z,33.10
2022-08-26T09:33:46.434Z,33.50
2022-08-26T09:36:26.256Z,33.10
2022-08-26T09:38:54.322Z,32.50
2022-08-26T09:41:25.900Z,32.60
2022-08-26T09:44:08.129Z,32.50
2022-08-26T09:46:46.477Z,32.70
2022-08-26T09:49:27.079Z,32.70
2022-08-26T09:52:15.833Z,32.50
2022-08-26T09:54:45.409Z,32.30
2022-08-26T09:57:22.675Z,32.10
2022-08-26T09:59:49.483Z,32.20
2022-08-26T10:02:31.662Z,32.80
2022-08-26T10:05:09.147Z,33.10
2022-08-26T10:07:45.114Z,33.20
2022-08-26T10:10:20.064Z,33.50
2022-08-26T10:13:03.185Z,33.40
2022-08-26T10:15:38.834Z,32.70
2022-08-26T10:18:17.438Z,32.70
2022-08-26T10:20:53.106Z,32.00
2022-08-26T10:23:26.934Z,31.00
2022-08-26T10:26:05.289Z,30.20
2022-08-26T10:28:37.446Z,29.80
2022-08-26T10:31:40.113Z,29.50
2022-08-26T10:34:08.209Z,29.30
2022-08-26T10:37:10.634Z,29.00
2022-08-26T10:39:49.547Z,28.60
2022-08-26T10:42:53.089Z,28.50
2022-08-26T10:45:25.320Z,28.40
2022-08-26T10:48:08.849Z,28.50
2022-08-26T10:50:43.110Z,28.70
2022-08-26T10:53:39.084Z,29.30
2022-08-26T10:56:29.700Z,29.20
2022-08-26T10:59:03.034Z,29.30
2022-08-26T11:01:51.152Z,29.30
2022-08-26T11:04:42.358Z,29.30
2022-08-26T11:07:43.586Z,29.20
2022-08-26T11:10:20.150Z,29.10
2022-08-26T11:13:17.205Z,29.40
2022-08-26T11:15:44.111Z,29.90
2022-08-26T11:18:32.746Z,30.30
2022-08-26T11:21:00.987Z,30.60
2022-08-26T11:23:40.377Z,31.40
2022-08-26T11:26:08.686Z,31.70
2022-08-26T11:28:46.065Z,31.80
2022-08-26T11:31:26.132Z,32.20
2022-08-26T11:33:56.945Z,33.00
2022-08-26T11:36:51.427Z,33.60
2022-08-26T11:39:36.810Z,34.00
2022-08-26T11:42:28.421Z,34.40
2022-08-26T11:44:58.236Z,33.90
2022-08-26T11:47:30.604Z,34.00
2022-08-26T11:50:17.666Z,34.70
2022-08-26T11:53:01.459Z,35.60
2022-08-26T11:55:30.066Z,35.80
2022-08-26T11:58:00.857Z,35.10
2022-08-26T12:01:11.507Z,34.40
2022-08-26T12:03:44.024Z,34.30
2022-08-26T12:06:21.629Z,34.50
2022-08-26T12:08:49.304Z,34.80
2022-08-26T12:11:29.428Z,34.20
2022-08-26T12:14:00.982Z,33.90
2022-08-26T12:16:33.679Z,34.30
2022-08-26T12:19:00.431Z,34.50
2022-08-26T12:21:34.581Z,34.00
2022-08-26T12:24:03.977Z,33.90
2022-08-26T12:26:35.699Z,33.20
2022-08-26T12:29:26.916Z,32.80
2022-08-26T12:32:15.635Z,32.60
2022-08-26T12:34:44.430Z,32.60
2022-08-26T12:37:13.007Z,32.20
2022-08-26T12:39:43.464Z,31.50
2022-08-26T12:42:13.222Z,31.40
2022-08-26T12:45:06.440Z,31.90
2022-08-26T12:47:44.145Z,32.40
2022-08-26T12:50:51.365Z,32.70
2022-08-26T12:53:22.159Z,32.40
2022-08-26T12:56:01.477Z,32.20
2022-08-26T12:58:32.851Z,31.80
2022-08-26T13:01:08.738Z,31.50
2022-08-26T13:03:38.560Z,31.70
2022-08-26T13:06:29.609Z,31.40
2022-08-26T13:08:57.834Z,30.60
2022-08-26T13:11:38.647Z,30.00
2022-08-26T13:14:12.422Z,29.80
2022-08-26T13:16:49.245Z,29.80
2022-08-26T13:19:19.107Z,29.70
2022-08-26T13:21:49.000Z,29.60
2022-08-26T13:24:21.718Z,29.50
2022-08-26T13:26:49.717Z,29.50
2022-08-26T13:29:17.194Z,29.50
2022-08-26T13:31:45.553Z,29.40
2022-08-26T13:34:16.217Z,29.50
2022-08-26T13:36:44.902Z,29.30
2022-08-26T13:39:12.510Z,29.20
2022-08-26T13:41:39.511Z,28.90
2022-08-26T13:44:06.813Z,28.90
2022-08-26T13:46:33.681Z,29.00
2022-08-26T13:49:00.600Z,29.10
2022-08-26T13:51:27.926Z,29.20
2022-08-26T13:53:54.918Z,29.30
2022-08-26T13:56:22.943Z,29.30
2022-08-26T13:58:50.034Z,29.20
2022-08-26T14:01:17.001Z,29.10
2022-08-26T14:03:43.944Z,29.00
2022-08-26T14:06:10.875Z,28.90
2022-08-26T14:08:38.903Z,28.70
2022-08-26T14:11:05.925Z,28.30
2022-08-26T14:13:32.718Z,27.70
2022-08-26T14:16:01.451Z,27.40
2022-08-26T14:18:32.161Z,27.20
2022-08-26T14:20:59.316Z,27.10
2022-08-26T14:23:26.893Z,27.00
2022-08-26T14:25:53.808Z,27.00
2022-08-26T14:28:20.569Z,27.00
2022-08-26T14:30:52.740Z,27.00
2022-08-26T14:33:25.608Z,27.00
2022-08-26T14:35:53.074Z,26.80
2022-08-26T14:38:19.778Z,26.60
2022-08-26T14:40:46.629Z,26.30
2022-08-26T14:43:16.487Z,26.20
2022-08-26T14:45:45.129Z,26.00
2022-08-26T14:48:12.003Z,25.70
2022-08-26T14:50:38.974Z,25.50
2022-08-26T14:53:24.541Z,25.40
2022-08-26T14:55:51.505Z,25.50
2022-08-26T14:58:18.211Z,25.60
2022-08-26T15:00:44.954Z,25.50
2022-08-26T15:05:47.955Z,25.70
2022-08-26T15:08:15.634Z,25.70
2022-08-26T15:10:42.328Z,25.70
2022-08-26T15:13:09.093Z,25.80
2022-08-26T15:15:35.844Z,25.90
2022-08-26T15:18:02.598Z,26.00
2022-08-26T15:20:29.457Z,26.10
2022-08-26T15:22:56.977Z,26.10
2022-08-26T15:25:28.967Z,26.00
2022-08-26T15:27:55.668Z,26.00
2022-08-26T15:30:22.499Z,26.10
2022-08-26T15:32:49.294Z,26.20
2022-08-26T15:35:16.500Z,26.30
2022-08-26T15:37:45.464Z,26.30
2022-08-26T15:40:12.548Z,26.20
2022-08-26T15:42:39.613Z,26.00
2022-08-26T15:45:06.821Z,26.00
2022-08-26T15:47:33.712Z,26.00
2022-08-26T15:50:16.130Z,26.00
2022-08-26T15:52:42.949Z,25.80
2022-08-26T15:55:10.219Z,25.70
2022-08-26T15:57:37.148Z,25.30
2022-08-26T16:00:05.231Z,25.20
2022-08-26T16:02:38.637Z,24.90
2022-08-26T16:05:05.657Z,24.50
2022-08-26T16:07:32.600Z,24.00
2022-08-26T16:09:59.278Z,23.60
2022-08-26T16:12:25.990Z,23.30
2022-08-26T16:14:53.945Z,23.00
2022-08-26T16:17:20.917Z,22.90
2022-08-26T16:19:47.617Z,22.70
2022-08-26T16:22:14.268Z,22.50
2022-08-26T16:24:40.982Z,22.40
2022-08-26T16:27:08.384Z,22.30
2022-08-26T16:29:37.351Z,22.20
2022-08-26T16:32:08.650Z,22.20
2022-08-26T16:34:38.460Z,22.10
2022-08-26T16:37:24.598Z,22.00
2022-08-26T16:39:51.576Z,22.00
2022-08-26T16:42:18.450Z,21.90
2022-08-26T16:44:45.483Z,21.90
2022-08-26T16:47:16.078Z,21.80
2022-08-26T16:49:43.061Z,21.80
2022-08-26T16:52:11.373Z,21.80
2022-08-26T16:54:41.422Z,21.80
2022-08-26T16:57:10.437Z,21.80
2022-08-26T16:59:37.169Z,21.70
2022-08-26T17:02:04.985Z,21.70
2022-08-26T17:04:32.071Z,21.60
2022-08-26T17:06:59.759Z,21.50
2022-08-26T17:09:29.223Z,21.50
2022-08-26T17:11:55.966Z,21.50
2022-08-26T17:14:22.770Z,21.30
2022-08-26T17:16:51.334Z,21.20
2022-08-26T17:19:19.956Z,21.20
2022-08-26T17:21:47.296Z,21.10
2022-08-26T17:24:14.663Z,21.20
2022-08-26T17:26:44.279Z,21.30
2022-08-26T17:29:15.172Z,21.40
2022-08-26T17:31:43.513Z,21.50
2022-08-26T17:34:10.464Z,21.50
2022-08-26T17:36:37.323Z,21.60
2022-08-26T17:39:04.412Z,21.60
2022-08-26T17:41:31.236Z,21.70
2022-08-26T17:43:58.008Z,21.60
2022-08-26T17:46:25.350Z,21.60
2022-08-26T17:48:52.533Z,21.50
2022-08-26T17:51:19.962Z,21.50
2022-08-26T17:53:47.907Z,21.50
2022-08-26T17:56:17.255Z,21.50
2022-08-26T17:58:48.038Z,21.50
2022-08-26T18:01:18.867Z,21.50
2022-08-26T18:03:45.767Z,21.50
2022-08-26T18:06:13.839Z,21.50
2022-08-26T18:08:41.264Z,21.50
2022-08-26T18:11:13.642Z,21.50
2022-08-26T18:13:47.499Z,21.40
2022-08-26T18:16:16.051Z,21.30
2022-08-26T18:18:43.198Z,21.20
2022-08-26T18:21:19.794Z,21.10
2022-08-26T18:23:47.454Z,21.00
2022-08-26T18:26:20.379Z,21.00
2022-08-26T18:28:47.109Z,21.10
2022-08-26T18:31:14.916Z,21.10
2022-08-26T18:33:42.979Z,21.20
2022-08-26T18:36:24.468Z,21.10
2022-08-26T18:38:52.157Z,21.00
2022-08-26T18:41:21.057Z,21.00
2022-08-26T18:43:50.223Z,20.80
2022-08-26T18:46:18.053Z,20.70
2022-08-26T18:48:44.816Z,20.70
2022-08-26T18:51:20.341Z,20.70
2022-08-26T18:53:47.559Z,20.70
2022-08-26T18:56:16.704Z,20.80
2022-08-26T18:58:45.488Z,20.80
2022-08-26T19:01:13.259Z,20.80
2022-08-26T19:03:40.195Z,20.80
2022-08-26T19:06:07.289Z,20.80
2022-08-26T19:08:34.399Z,20.80
2022-08-26T19:11:01.264Z,20.80
2022-08-26T19:13:28.088Z,20.90
2022-08-26T19:15:55.283Z,20.90
2022-08-26T19:18:22.195Z,20.90
2022-08-26T19:20:48.918Z,20.80
2022-08-26T19:23:30.828Z,20.80
2022-08-26T19:25:58.729Z,20.80
2022-08-26T19:28:25.384Z,20.70
2022-08-26T19:30:53.233Z,20.70
2022-08-26T19:33:20.529Z,20.60
2022-08-26T19:35:47.817Z,20.50
2022-08-26T19:38:15.325Z,20.50
2022-08-26T19:40:43.065Z,20.50
2022-08-26T19:43:10.967Z,20.50
2022-08-26T19:45:39.772Z,20.50
2022-08-26T19:48:06.738Z,20.50
2022-08-26T19:50:34.585Z,20.50
2022-08-26T19:53:01.816Z,20.60
2022-08-26T19:55:35.059Z,20.60
2022-08-26T19:58:04.156Z,20.70
2022-08-26T20:00:31.977Z,20.80
2022-08-26T20:03:02.246Z,20.80
2022-08-26T20:05:29.125Z,20.80
2022-08-26T20:08:01.803Z,20.90
2022-08-26T20:10:31.319Z,20.90
2022-08-26T20:13:01.712Z,20.90
2022-08-26T20:15:28.579Z,21.00
2022-08-26T20:17:58.694Z,21.00
2022-08-26T20:20:44.326Z,21.00
2022-08-26T20:23:15.133Z,21.00
2022-08-26T20:25:42.871Z,21.00
2022-08-26T20:28:09.931Z,21.00
2022-08-26T20:30:39.519Z,21.10
2022-08-26T20:33:06.724Z,21.10
2022-08-26T20:35:33.678Z,21.10
2022-08-26T20:38:00.511Z,21.10
2022-08-26T20:40:27.348Z,21.20
2022-08-26T20:42:54.170Z,21.20
2022-08-26T20:45:21.082Z,21.10
2022-08-26T20:47:47.840Z,21.10
2022-08-26T20:50:14.545Z,21.10
2022-08-26T20:52:41.279Z,21.10
2022-08-26T20:55:08.539Z,21.10
2022-08-26T20:57:35.246Z,21.10
2022-08-26T21:00:02.254Z,21.10
2022-08-26T21:02:29.354Z,21.10
2022-08-26T21:04:56.097Z,20.90
2022-08-26T21:07:22.912Z,20.90
2022-08-26T21:09:49.609Z,20.80
2022-08-26T21:12:18.389Z,20.80
2022-08-26T21:14:49.425Z,20.80
2022-08-26T21:17:16.468Z,20.70
2022-08-26T21:19:43.283Z,20.70
2022-08-26T21:22:10.241Z,20.70
2022-08-26T21:24:36.998Z,20.80
2022-08-26T21:27:03.847Z,20.80
2022-08-26T21:29:30.646Z,20.90
2022-08-26T21:31:57.810Z,21.00
2022-08-26T21:34:24.901Z,21.00
2022-08-26T21:36:51.650Z,21.00
2022-08-26T21:39:18.461Z,21.00
2022-08-26T21:41:45.941Z,20.80
2022-08-26T21:44:14.098Z,20.80
2022-08-26T21:46:41.692Z,20.80
2022-08-26T21:49:11.146Z,20.80
2022-08-26T21:51:41.433Z,20.70
2022-08-26T21:54:11.229Z,20.50
2022-08-26T21:56:40.898Z,20.60
2022-08-26T21:59:08.273Z,20.60
2022-08-26T22:01:35.410Z,20.60
2022-08-26T22:04:04.078Z,20.60
2022-08-26T22:06:32.541Z,20.60
2022-08-26T22:08:59.860Z,20.60
2022-08-26T22:11:27.778Z,20.60
2022-08-26T22:13:56.174Z,20.50
2022-08-26T22:16:23.107Z,20.50
2022-08-26T22:18:50.057Z,20.50
2022-08-26T22:21:19.355Z,20.50
2022-08-26T22:23:46.674Z,20.50
2022-08-26T22:26:16.182Z,20.40
2022-08-26T22:28:55.585Z,20.40
2022-08-26T22:31:28.098Z,20.40
2022-08-26T22:34:06.793Z,20.30
2022-08-26T22:36:33.502Z,20.30
2022-08-26T22:39:00.993Z,20.30
2022-08-26T22:41:27.802Z,20.30
2022-08-26T22:43:54.555Z,20.30
2022-08-26T22:46:24.654Z,20.30
2022-08-26T22:48:53.718Z,20.30
2022-08-26T22:51:21.844Z,20.30
2022-08-26T22:53:48.979Z,20.40
2022-08-26T22:56:18.311Z,20.30
2022-08-26T22:58:45.597Z,20.30
2022-08-26T23:01:12.494Z,20.30
2022-08-26T23:03:39.505Z,20.40
2022-08-26T23:06:10.146Z,20.30
2022-08-26T23:08:38.034Z,20.40
2022-08-26T23:11:09.113Z,20.40
2022-08-26T23:13:36.539Z,20.30
2022-08-26T23:16:06.440Z,20.10
2022-08-26T23:18:33.246Z,20.10
2022-08-26T23:21:00.204Z,20.10
2022-08-26T23:23:27.643Z,20.10
2022-08-26T23:25:55.494Z,20.10
2022-08-26T23:28:22.675Z,20.10
2022-08-26T23:30:49.914Z,20.10
2022-08-26T23:33:16.702Z,20.10
2022-08-26T23:35:44.026Z,20.00
2022-08-26T23:38:13.439Z,20.00
2022-08-26T23:40:41.919Z,20.00
2022-08-26T23:43:11.474Z,20.00
2022-08-26T23:45:38.844Z,20.00
2022-08-26T23:48:06.486Z,20.00
2022-08-26T23:50:52.801Z,19.90
2022-08-26T23:53:22.456Z,19.90
2022-08-26T23:55:52.194Z,19.90
2022-08-26T23:58:20.768Z,19.90
